Time;durP1;ratioP1;P1;durP2;ratioP2;P2;SDS_P1;SDS_P2;PMS_P1;PMS_P2;Temp;Humidity;BMP_temperature;BMP_pressure;BME280_temperature;BME280_humidity;BME280_pressure;Samples;Min_cycle;Max_cycle;Signal;HPM_P1;HPM_P2
2021/04/05 00:02:25;;;;;;;57.35;30.33;;;5.30;99.90;;;;;;5087350;28;20023;-46
2021/04/05 00:04:50;;;;;;;61.72;31.38;;;5.30;99.90;;;;;;5086828;28;20206;-46
2021/04/05 00:07:16;;;;;;;69.30;33.42;;;5.30;99.90;;;;;;5069365;28;20168;-45
2021/04/05 00:09:41;;;;;;;63.00;34.30;;;5.30;99.90;;;;;;5086264;28;20497;-46
2021/04/05 00:12:09;;;;;;;69.75;35.00;;;5.30;99.90;;;;;;5087432;28;20024;-45
2021/04/05 00:14:35;;;;;;;65.53;34.47;;;5.30;99.90;;;;;;5085713;28;20042;-46
2021/04/05 00:17:01;;;;;;;72.35;34.70;;;5.20;99.90;;;;;;5087132;28;20035;-47
2021/04/05 00:19:26;;;;;;;62.22;34.67;;;5.20;99.90;;;;;;5086226;28;20106;-47
2021/04/05 00:21:52;;;;;;;71.65;37.75;;;5.20;99.90;;;;;;5087025;28;20024;-47
2021/04/05 00:24:18;;;;;;;74.35;37.83;;;5.20;99.90;;;;;;5086653;28;20093;-46
2021/04/05 00:26:43;;;;;;;65.68;36.13;;;5.20;99.90;;;;;;5085413;28;20562;-46
2021/04/05 00:29:09;;;;;;;73.70;38.28;;;5.10;99.90;;;;;;5086318;28;20020;-45
2021/04/05 00:31:34;;;;;;;75.90;39.28;;;5.20;99.90;;;;;;5083270;28;20043;-48
2021/04/05 00:34:00;;;;;;;74.45;38.40;;;5.10;99.90;;;;;;5047475;28;20382;-47
2021/04/05 00:36:25;;;;;;;84.47;39.92;;;5.10;99.90;;;;;;5066504;28;20043;-49
2021/04/05 00:38:50;;;;;;;83.15;41.20;;;5.10;99.90;;;;;;5077105;28;20469;-46
2021/04/05 00:41:16;;;;;;;79.40;41.00;;;5.20;99.90;;;;;;5068384;28;20207;-49
2021/04/05 00:43:46;;;;;;;80.60;39.25;;;5.20;99.90;;;;;;5085971;28;20024;-46
2021/04/05 00:46:13;;;;;;;80.65;38.28;;;5.20;99.90;;;;;;5086742;28;20107;-47
2021/04/05 00:48:39;;;;;;;79.53;40.50;;;5.30;99.90;;;;;;5085423;28;20032;-46
2021/04/05 00:51:07;;;;;;;83.97;41.33;;;5.30;99.90;;;;;;5085679;28;20028;-47
2021/04/05 00:53:36;;;;;;;77.78;40.60;;;5.30;99.90;;;;;;5085003;28;20028;-47
2021/04/05 00:56:03;;;;;;;77.57;38.35;;;5.30;99.90;;;;;;5086305;28;20067;-46
2021/04/05 00:58:29;;;;;;;75.35;38.83;;;5.30;99.90;;;;;;5086465;28;20032;-46
2021/04/05 01:01:01;;;;;;;81.68;40.05;;;5.40;99.90;;;;;;5085634;28;20038;-48
2021/04/05 01:03:28;;;;;;;80.32;40.88;;;5.30;99.90;;;;;;5085827;28;20081;-48
2021/04/05 01:06:01;;;;;;;77.30;39.75;;;5.30;99.90;;;;;;5086355;28;20519;-48
2021/04/05 01:08:26;;;;;;;81.45;38.97;;;5.40;99.90;;;;;;5086587;28;20089;-47
2021/04/05 01:10:52;;;;;;;76.30;38.13;;;5.30;99.90;;;;;;5085094;28;20036;-48
2021/04/05 01:13:19;;;;;;;76.47;38.33;;;5.40;99.90;;;;;;5086010;28;20476;-47
2021/04/05 01:15:44;;;;;;;79.00;37.95;;;5.40;99.90;;;;;;5085768;28;20024;-47
2021/04/05 01:18:12;;;;;;;72.75;37.00;;;5.30;99.90;;;;;;5086222;28;20089;-48
2021/04/05 01:20:37;;;;;;;74.10;37.50;;;5.40;99.90;;;;;;5086354;28;20313;-47
2021/04/05 01:23:04;;;;;;;70.78;35.78;;;5.40;99.90;;;;;;5085008;28;20557;-47
2021/04/05 01:25:30;;;;;;;66.38;34.50;;;5.50;99.90;;;;;;5085939;28;20100;-46
2021/04/05 01:27:57;;;;;;;68.80;36.45;;;5.50;99.90;;;;;;5085462;28;20028;-48
2021/04/05 01:30:28;;;;;;;67.30;33.95;;;5.50;99.90;;;;;;5086260;28;20114;-47
2021/04/05 01:33:11;;;;;;;69.07;34.03;;;5.50;99.90;;;;;;5081652;28;20036;-47
2021/04/05 01:35:42;;;;;;;68.70;33.30;;;5.50;99.90;;;;;;5084946;28;20222;-49
2021/04/05 01:38:09;;;;;;;71.97;34.17;;;5.50;99.90;;;;;;5086507;28;20028;-47
2021/04/05 01:40:36;;;;;;;69.82;33.75;;;5.50;99.90;;;;;;5085686;28;20107;-50
2021/04/05 01:43:02;;;;;;;65.50;29.80;;;5.50;99.90;;;;;;5084735;28;20051;-47
2021/04/05 01:45:28;;;;;;;64.00;31.85;;;5.50;99.90;;;;;;5086075;28;20028;-47
2021/04/05 01:47:54;;;;;;;66.45;32.30;;;5.50;99.90;;;;;;5068005;28;20473;-46
2021/04/05 01:50:20;;;;;;;63.15;31.88;;;5.50;99.90;;;;;;5085086;28;20400;-48
2021/04/05 01:52:45;;;;;;;69.50;32.47;;;5.50;99.90;;;;;;5086073;28;20043;-46
2021/04/05 01:55:11;;;;;;;67.28;30.92;;;5.50;99.90;;;;;;5085431;28;20032;-47
2021/04/05 01:57:37;;;;;;;66.03;31.80;;;5.50;99.90;;;;;;5085365;28;20044;-46
2021/04/05 02:00:09;;;;;;;68.97;33.42;;;5.50;99.90;;;;;;5085760;28;20063;-48
2021/04/05 02:02:35;;;;;;;59.13;30.92;;;5.50;99.90;;;;;;5089829;28;20026;-46
2021/04/05 02:05:03;;;;;;;67.40;32.20;;;5.60;99.90;;;;;;5089152;28;20110;-47
2021/04/05 02:07:29;;;;;;;59.72;29.83;;;5.60;99.90;;;;;;5089094;28;20020;-47
2021/04/05 02:09:54;;;;;;;64.55;31.85;;;5.60;99.90;;;;;;5089093;28;20020;-46
2021/04/05 02:12:21;;;;;;;67.00;31.33;;;5.60;99.90;;;;;;5089010;28;20099;-46
2021/04/05 02:14:47;;;;;;;57.80;29.35;;;5.70;99.90;;;;;;5088643;28;20032;-47
2021/04/05 02:17:12;;;;;;;63.92;33.17;;;5.60;99.90;;;;;;5088994;28;20062;-45
2021/04/05 02:19:38;;;;;;;57.88;30.83;;;5.60;99.90;;;;;;5089059;28;20028;-51
2021/04/05 02:22:05;;;;;;;64.00;31.52;;;5.60;99.90;;;;;;5089015;28;20043;-46
2021/04/05 02:24:31;;;;;;;63.00;30.35;;;5.60;99.90;;;;;;5088205;28;20524;-46
2021/04/05 02:26:57;;;;;;;62.17;31.63;;;5.60;99.90;;;;;;5088853;28;20281;-46
2021/04/05 02:29:23;;;;;;;63.20;30.00;;;5.60;99.90;;;;;;5066273;28;20048;-46
2021/04/05 02:31:51;;;;;;;62.83;29.58;;;5.70;99.90;;;;;;5068515;28;20120;-47
2021/04/05 02:34:16;;;;;;;53.08;27.80;;;5.70;99.90;;;;;;5076859;28;20024;-47
2021/04/05 02:36:42;;;;;;;65.28;30.05;;;5.70;99.90;;;;;;5079116;28;20042;-46
2021/04/05 02:39:10;;;;;;;60.72;28.42;;;5.60;99.90;;;;;;5089096;28;20051;-47
2021/04/05 02:41:43;;;;;;;57.30;29.35;;;5.70;99.90;;;;;;5079237;28;20107;-46
2021/04/05 02:44:10;;;;;;;60.60;28.27;;;5.70;99.90;;;;;;5069448;28;20507;-47
2021/04/05 02:46:38;;;;;;;61.20;28.70;;;5.70;99.90;;;;;;5070701;28;20460;-47
2021/04/05 02:49:12;;;;;;;56.60;28.00;;;5.70;99.90;;;;;;5066688;28;20019;-46
2021/04/05 02:51:43;;;;;;;56.00;27.17;;;5.60;99.90;;;;;;5068473;28;20096;-45
2021/04/05 02:54:10;;;;;;;;;;;5.70;99.90;;;;;;5078465;28;20076;-48
2021/04/05 02:56:37;;;;;;;55.55;26.30;;;5.60;99.90;;;;;;5088845;28;19908;-47
2021/04/05 02:59:03;;;;;;;62.33;27.85;;;5.60;99.90;;;;;;5087404;28;20028;-47
2021/04/05 03:01:29;;;;;;;57.15;28.05;;;5.60;99.90;;;;;;5067800;28;20033;-47
2021/04/05 03:03:56;;;;;;;54.88;27.85;;;5.50;99.90;;;;;;5067770;28;20025;-46
2021/04/05 03:06:24;;;;;;;59.25;27.95;;;5.50;99.90;;;;;;5085583;28;20268;-47
2021/04/05 03:08:50;;;;;;;60.42;28.42;;;5.40;99.90;;;;;;5088562;28;20020;-48
2021/04/05 03:11:19;;;;;;;60.33;28.65;;;5.50;99.90;;;;;;5078688;28;20030;-47
2021/04/05 03:13:45;;;;;;;65.32;28.50;;;5.50;99.90;;;;;;5086172;28;20416;-46
2021/04/05 03:16:15;;;;;;;53.05;27.25;;;5.50;99.90;;;;;;5086628;28;20056;-47
2021/04/05 03:18:43;;;;;;;55.83;27.63;;;5.70;99.90;;;;;;5088542;28;20177;-47
2021/04/05 03:21:10;;;;;;;60.97;28.67;;;5.70;99.90;;;;;;5087947;28;20032;-47
2021/04/05 03:23:36;;;;;;;58.92;27.80;;;5.80;99.90;;;;;;5086648;28;20036;-48
2021/04/05 03:26:03;;;;;;;54.40;27.75;;;5.90;99.90;;;;;;5088375;28;20024;-47
2021/04/05 03:28:29;;;;;;;56.65;27.58;;;5.90;99.90;;;;;;5087384;28;20013;-48
2021/04/05 03:31:19;;;;;;;57.85;27.13;;;5.90;99.90;;;;;;5087755;28;20026;-48
2021/04/05 03:33:47;;;;;;;49.00;24.85;;;5.90;99.90;;;;;;5087754;28;20032;-48
2021/04/05 03:36:24;;;;;;;68.32;28.95;;;5.80;99.90;;;;;;5083343;28;20552;-48
2021/04/05 03:38:50;;;;;;;55.97;27.42;;;5.90;99.90;;;;;;5079508;28;20190;-46
2021/04/05 03:41:24;;;;;;;54.95;25.58;;;6.00;99.90;;;;;;5087696;28;20103;-46
2021/04/05 03:44:03;;;;;;;54.83;27.05;;;6.00;99.90;;;;;;5068730;28;20122;-48
2021/04/05 03:46:32;;;;;;;54.95;26.90;;;6.20;99.90;;;;;;5086717;28;20473;-49
2021/04/05 03:49:25;;;;;;;50.78;25.48;;;6.30;99.90;;;;;;5086629;28;20528;-47
2021/04/05 03:52:22;;;;;;;52.35;26.33;;;6.30;99.90;;;;;;5081221;28;20028;-44
2021/04/05 03:54:56;;;;;;;51.55;26.40;;;6.40;99.90;;;;;;5057854;28;20032;-45
2021/04/05 03:57:31;;;;;;;61.85;27.08;;;6.40;99.90;;;;;;5087570;28;20016;-45
2021/04/05 04:00:00;;;;;;;53.88;28.08;;;6.50;99.90;;;;;;5087014;28;20032;-47
2021/04/05 04:02:32;;;;;;;67.70;28.40;;;6.50;99.90;;;;;;5066010;28;20016;-47
2021/04/05 04:05:07;;;;;;;53.38;28.63;;;6.50;99.90;;;;;;5087028;28;20440;-48
2021/04/05 04:10:43;;;;;;;56.03;29.27;;;6.50;99.90;;;;;;5043956;28;20087;-46
2021/04/05 04:13:12;;;;;;;49.17;27.42;;;6.60;99.90;;;;;;5042542;28;20040;-48
2021/04/05 04:15:38;;;;;;;51.22;26.95;;;6.60;99.90;;;;;;5055639;28;20032;-46
2021/04/05 04:18:04;;;;;;;63.10;29.60;;;6.50;99.90;;;;;;5053611;28;20390;-46
2021/04/05 04:20:32;;;;;;;56.03;28.35;;;6.50;99.90;;;;;;5086816;28;20451;-46
2021/04/05 04:22:58;;;;;;;56.63;28.17;;;6.60;99.90;;;;;;5085671;28;20031;-45
2021/04/05 04:25:25;;;;;;;53.00;27.80;;;6.60;99.90;;;;;;5086564;28;20123;-46
2021/04/05 04:27:50;;;;;;;67.65;29.92;;;6.60;99.90;;;;;;5086569;28;20059;-45
2021/04/05 04:30:31;;;;;;;58.83;30.02;;;6.60;99.90;;;;;;5085379;28;20204;-47
2021/04/05 04:33:04;;;;;;;60.63;29.83;;;6.60;99.90;;;;;;5085785;28;20032;-48
2021/04/05 04:35:30;;;;;;;58.88;29.20;;;6.70;99.90;;;;;;5085243;28;20521;-46
2021/04/05 04:37:57;;;;;;;53.88;29.25;;;6.60;99.90;;;;;;5079141;28;20024;-46
2021/04/05 04:40:24;;;;;;;58.47;30.23;;;6.70;99.90;;;;;;5085727;28;20016;-46
2021/04/05 04:42:50;;;;;;;61.58;31.63;;;6.60;99.90;;;;;;5086547;28;20516;-46
2021/04/05 04:45:18;;;;;;;55.42;30.33;;;6.70;99.90;;;;;;5085776;28;20059;-45
2021/04/05 04:47:44;;;;;;;63.92;30.77;;;6.70;99.90;;;;;;5086732;28;20518;-46
2021/04/05 04:50:13;;;;;;;55.03;29.13;;;6.70;99.90;;;;;;5085712;28;20020;-45
2021/04/05 04:52:38;;;;;;;57.53;29.70;;;6.70;99.90;;;;;;5086715;28;20068;-45
2021/04/05 04:55:05;;;;;;;75.53;32.92;;;6.80;99.90;;;;;;5086004;28;20024;-48
2021/04/05 04:57:30;;;;;;;55.72;31.98;;;6.60;99.90;;;;;;5085346;28;20095;-45
2021/04/05 04:59:58;;;;;;;62.60;29.73;;;6.60;99.90;;;;;;5086385;28;20078;-49
2021/04/05 05:02:24;;;;;;;62.88;31.50;;;6.60;99.90;;;;;;5085066;28;20095;-48
2021/04/05 05:04:53;;;;;;;62.83;30.08;;;6.70;99.90;;;;;;5077433;28;20024;-45
2021/04/05 05:07:20;;;;;;;56.20;30.52;;;6.70;99.90;;;;;;5084931;28;20032;-46
2021/04/05 05:09:46;;;;;;;57.15;29.92;;;6.80;99.90;;;;;;5086035;28;20047;-45
2021/04/05 05:12:12;;;;;;;53.42;27.20;;;6.80;99.90;;;;;;5085895;28;20473;-45
2021/04/05 05:14:40;;;;;;;62.00;30.35;;;6.80;99.90;;;;;;5084557;28;20389;-46
2021/04/05 05:17:07;;;;;;;61.40;29.85;;;6.90;99.90;;;;;;5085886;28;20027;-48
2021/04/05 05:19:36;;;;;;;59.67;29.92;;;6.80;99.90;;;;;;5084767;28;20028;-45
2021/04/05 05:22:04;;;;;;;55.42;29.38;;;6.90;99.90;;;;;;5085728;28;20362;-48
2021/04/05 05:24:31;;;;;;;59.03;30.40;;;6.90;99.90;;;;;;5084469;28;20118;-48
2021/04/05 05:26:57;;;;;;;58.55;30.20;;;6.90;99.90;;;;;;5085521;28;20031;-48
2021/04/05 05:29:23;;;;;;;63.55;31.10;;;6.90;99.90;;;;;;5066879;28;20024;-49
2021/04/05 05:31:49;;;;;;;54.60;30.80;;;6.90;99.90;;;;;;5085335;28;20092;-49
2021/04/05 05:34:18;;;;;;;64.35;29.63;;;6.90;99.90;;;;;;5085228;28;20110;-49
2021/04/05 05:36:45;;;;;;;55.90;30.80;;;6.90;99.90;;;;;;5069252;28;20226;-46
2021/04/05 05:39:12;;;;;;;65.18;31.85;;;6.80;99.90;;;;;;5086411;28;20134;-46
2021/04/05 05:42:10;;;;;;;58.72;31.35;;;6.70;99.90;;;;;;5080753;28;20074;-46
2021/04/05 05:45:01;;;;;;;55.05;29.70;;;6.70;99.90;;;;;;5087836;28;20020;-50
2021/04/05 05:47:57;;;;;;;60.72;31.75;;;6.70;99.90;;;;;;5087482;28;20023;-46
2021/04/05 05:50:42;;;;;;;56.67;30.65;;;6.60;99.90;;;;;;5088976;28;20583;-46
2021/04/05 05:53:27;;;;;;;59.80;32.42;;;6.50;99.90;;;;;;5070095;28;20090;-47
2021/04/05 05:56:17;;;;;;;65.03;32.25;;;6.50;99.90;;;;;;5089403;28;20042;-47
2021/04/05 05:59:00;;;;;;;68.00;33.17;;;6.40;99.90;;;;;;5087396;28;20064;-48
2021/04/05 06:01:36;;;;;;;63.72;32.42;;;6.40;99.90;;;;;;5089993;28;20118;-47
2021/04/05 06:04:25;;;;;;;58.33;31.98;;;6.30;99.90;;;;;;5086911;28;20530;-46
2021/04/05 06:06:59;;;;;;;68.05;36.03;;;6.40;99.90;;;;;;5088602;28;20072;-45
2021/04/05 06:09:43;;;;;;;57.10;32.33;;;6.40;99.90;;;;;;5069325;28;20016;-45
2021/04/05 06:12:24;;;;;;;67.10;32.55;;;6.30;99.90;;;;;;5087319;28;20020;-49
2021/04/05 06:15:26;;;;;;;69.50;33.15;;;6.30;99.90;;;;;;5077692;28;20016;-47
2021/04/05 06:18:22;;;;;;;69.30;33.60;;;6.30;99.90;;;;;;5005074;28;20057;-46
2021/04/05 06:21:16;;;;;;;72.72;35.08;;;6.30;99.90;;;;;;5088144;28;20499;-50
2021/04/05 06:23:49;;;;;;;63.22;33.90;;;6.20;99.90;;;;;;5085708;28;20522;-47
2021/04/05 06:26:42;;;;;;;64.32;33.75;;;6.20;99.90;;;;;;5088467;28;20381;-46
2021/04/05 06:29:39;;;;;;;61.72;32.67;;;6.20;99.90;;;;;;5068614;28;20499;-48
2021/04/05 06:32:29;;;;;;;67.78;31.92;;;6.30;99.90;;;;;;5088169;28;20358;-47
2021/04/05 06:35:15;;;;;;;65.88;33.97;;;6.20;99.90;;;;;;5086982;28;20178;-47
2021/04/05 06:37:52;;;;;;;58.38;32.63;;;6.20;99.90;;;;;;5087135;28;20218;-47
2021/04/05 06:40:21;;;;;;;64.97;35.72;;;6.20;99.90;;;;;;5086712;28;20504;-48
2021/04/05 06:43:14;;;;;;;68.10;33.90;;;6.10;99.90;;;;;;5088045;28;20111;-49
2021/04/05 06:46:03;;;;;;;67.70;34.28;;;6.10;99.90;;;;;;5088733;28;20028;-48
2021/04/05 06:49:03;;;;;;;62.40;33.95;;;6.10;99.90;;;;;;5087744;28;20393;-50
2021/04/05 06:52:13;;;;;;;67.60;34.75;;;6.20;99.90;;;;;;5081300;28;20090;-47
2021/04/05 06:55:00;;;;;;;49.72;28.60;;;6.20;99.90;;;;;;5083737;28;20271;-47
2021/04/05 06:58:03;;;;;;;61.22;30.80;;;6.10;99.90;;;;;;5088335;28;20028;-49
2021/04/05 07:00:50;;;;;;;55.53;30.27;;;6.20;99.90;;;;;;5088201;28;20035;-47
2021/04/05 07:03:41;;;;;;;61.00;32.40;;;6.10;99.90;;;;;;5069211;28;20031;-47
2021/04/05 07:06:34;;;;;;;65.88;32.42;;;6.10;99.90;;;;;;5088234;28;20078;-50
2021/04/05 07:09:07;;;;;;;54.40;30.77;;;6.00;99.90;;;;;;5082896;28;20063;-47
2021/04/05 07:12:01;;;;;;;56.20;32.40;;;6.10;99.90;;;;;;5087389;28;20427;-48
2021/04/05 07:14:55;;;;;;;58.80;31.63;;;6.10;99.90;;;;;;5048837;28;20081;-49
2021/04/05 07:17:29;;;;;;;52.47;27.55;;;6.10;99.90;;;;;;5085791;28;20050;-48
2021/04/05 07:20:07;;;;;;;53.20;28.77;;;6.00;99.90;;;;;;5077592;28;20024;-51
2021/04/05 07:22:55;;;;;;;59.15;30.80;;;6.00;99.90;;;;;;5085781;28;20028;-50
2021/04/05 07:25:31;;;;;;;50.42;28.92;;;6.00;99.90;;;;;;5066038;28;20512;-51
2021/04/05 07:28:19;;;;;;;51.38;27.85;;;6.00;99.90;;;;;;5069497;28;20031;-51
2021/04/05 07:30:57;;;;;;;26.15;12.73;;;6.00;99.90;;;;;;5088315;28;20093;-50
2021/04/05 07:33:37;;;;;;;13.55;8.15;;;5.90;99.90;;;;;;5087494;28;20119;-50
2021/04/05 07:36:26;;;;;;;11.32;5.20;;;5.60;99.90;;;;;;5087397;28;20024;-48
2021/04/05 07:39:16;;;;;;;11.02;4.88;;;5.20;99.90;;;;;;5069587;28;20493;-48
2021/04/05 07:41:49;;;;;;;6.90;3.97;;;4.90;99.90;;;;;;5082969;28;20089;-51
2021/04/05 07:44:45;;;;;;;6.55;3.33;;;4.70;99.90;;;;;;5087593;28;20286;-51
2021/04/05 07:47:13;;;;;;;4.90;3.00;;;4.60;99.90;;;;;;5086150;28;20028;-50
2021/04/05 07:49:57;;;;;;;3.90;2.80;;;4.40;99.90;;;;;;5087811;28;20031;-46
2021/04/05 07:52:42;;;;;;;5.88;2.67;;;4.30;99.90;;;;;;5087286;28;20024;-46
2021/04/05 07:55:09;;;;;;;5.00;2.05;;;4.30;99.90;;;;;;5086829;28;20115;-45
2021/04/05 07:57:50;;;;;;;4.20;1.95;;;4.30;99.90;;;;;;5087695;28;20042;-47
2021/04/05 08:00:28;;;;;;;4.72;1.90;;;4.20;99.90;;;;;;5086712;28;20084;-50
2021/04/05 08:03:35;;;;;;;3.45;2.15;;;4.20;99.90;;;;;;5086510;28;20036;-51
2021/04/05 08:06:06;;;;;;;3.30;1.90;;;4.20;99.90;;;;;;5065391;28;20025;-49
2021/04/05 08:08:34;;;;;;;1.73;1.42;;;4.20;99.90;;;;;;5074064;28;20035;-52
2021/04/05 08:11:39;;;;;;;1.98;1.30;;;4.30;99.90;;;;;;5079765;28;20025;-52
2021/04/05 08:14:23;;;;;;;2.17;1.38;;;4.30;99.90;;;;;;5003233;28;20476;-50
2021/04/05 08:17:00;;;;;;;3.28;1.33;;;4.40;99.90;;;;;;4999789;28;20034;-50
2021/04/05 08:19:43;;;;;;;2.28;1.30;;;4.40;99.90;;;;;;5053436;28;20589;-51
2021/04/05 08:22:37;;;;;;;2.38;1.60;;;4.40;99.90;;;;;;5086846;28;20028;-45
2021/04/05 08:25:12;;;;;;;4.35;1.55;;;4.40;99.90;;;;;;5086626;28;20020;-45
2021/04/05 08:28:17;;;;;;;1.23;0.82;;;4.30;99.90;;;;;;5079744;28;20073;-46
2021/04/05 08:30:54;;;;;;;3.33;1.08;;;4.20;99.90;;;;;;5048817;28;20629;-50
2021/04/05 08:33:42;;;;;;;2.50;1.08;;;4.20;99.90;;;;;;5075441;28;20389;-49
2021/04/05 08:36:35;;;;;;;3.03;1.55;;;4.20;99.90;;;;;;5087229;28;20024;-51
2021/04/05 08:39:12;;;;;;;2.50;1.08;;;4.10;99.90;;;;;;5061861;28;20101;-48
2021/04/05 08:41:48;;;;;;;2.22;1.25;;;4.20;99.90;;;;;;5075741;28;20039;-47
2021/04/05 08:44:38;;;;;;;4.40;1.60;;;4.20;99.90;;;;;;5084537;28;20111;-47
2021/04/05 08:47:11;;;;;;;1.63;1.10;;;4.20;99.90;;;;;;5066719;28;20497;-49
2021/04/05 08:49:40;;;;;;;2.10;0.88;;;4.20;99.90;;;;;;5059111;28;20094;-49
2021/04/05 08:52:11;;;;;;;2.05;1.25;;;4.30;99.90;;;;;;5086761;28;20020;-47
2021/04/05 08:54:39;;;;;;;4.78;1.13;;;4.40;99.90;;;;;;5086085;28;20385;-47
2021/04/05 08:57:08;;;;;;;1.95;0.95;;;4.40;99.90;;;;;;5085924;28;20036;-47
2021/04/05 08:59:41;;;;;;;5.45;1.27;;;4.50;99.90;;;;;;5086555;28;20405;-47
2021/04/05 09:02:26;;;;;;;4.93;1.42;;;4.60;99.90;;;;;;5085785;28;20390;-47
2021/04/05 09:04:54;;;;;;;2.53;0.90;;;4.60;99.90;;;;;;5086061;28;20031;-47
2021/04/05 09:07:52;;;;;;;1.85;1.17;;;4.70;99.90;;;;;;5086066;28;20350;-49
2021/04/05 09:10:24;;;;;;;3.17;1.30;;;4.80;99.90;;;;;;5063739;28;20033;-47
2021/04/05 09:12:51;;;;;;;3.40;1.30;;;4.80;99.90;;;;;;5085614;28;20020;-48
2021/04/05 09:15:28;;;;;;;6.40;1.30;;;4.80;99.90;;;;;;5086379;28;20020;-50
2021/04/05 09:18:32;;;;;;;2.90;1.10;;;4.80;99.90;;;;;;5086216;28;20499;-49
2021/04/05 09:21:39;;;;;;;4.72;1.20;;;4.80;99.90;;;;;;5086209;28;20099;-50
2021/04/05 09:24:42;;;;;;;4.75;1.55;;;4.70;99.90;;;;;;5085748;28;20028;-51
2021/04/05 09:27:13;;;;;;;5.53;1.25;;;4.80;99.90;;;;;;5086691;28;20433;-50
2021/04/05 09:29:42;;;;;;;3.22;1.20;;;4.70;99.90;;;;;;5085566;28;20526;-51
2021/04/05 09:32:30;;;;;;;5.47;1.58;;;4.60;99.90;;;;;;5086336;28;20540;-51
2021/04/05 09:35:04;;;;;;;9.57;1.80;;;4.60;99.90;;;;;;5085920;28;20020;-50
2021/04/05 09:37:51;;;;;;;6.32;1.50;;;4.60;99.90;;;;;;5079993;28;20016;-48
2021/04/05 09:40:36;;;;;;;7.25;1.85;;;4.60;99.90;;;;;;5081219;28;20097;-49
2021/04/05 09:43:38;;;;;;;4.00;1.23;;;4.80;99.90;;;;;;5070916;28;20501;-49
2021/04/05 09:46:24;;;;;;;5.90;1.88;;;4.70;99.90;;;;;;5085603;28;20541;-47
2021/04/05 09:49:01;;;;;;;8.18;1.90;;;4.70;99.90;;;;;;5088850;28;20032;-48
2021/04/05 09:52:02;;;;;;;4.03;1.45;;;4.80;99.90;;;;;;5093992;28;20016;-48
2021/04/05 09:54:39;;;;;;;6.28;1.63;;;4.80;99.90;;;;;;5085558;28;20024;-49
2021/04/05 09:57:23;;;;;;;7.45;1.52;;;4.90;99.90;;;;;;5085918;28;20097;-50
2021/04/05 09:59:53;;;;;;;5.50;1.77;;;5.10;99.90;;;;;;5065377;28;20168;-46
2021/04/05 10:02:27;;;;;;;;;;;5.30;99.90;;;;;;5066377;28;20031;-48
2021/04/05 10:04:53;;;;;;;7.63;1.48;;;5.40;99.90;;;;;;5065372;28;19913;-48
2021/04/05 10:07:21;;;;;;;6.80;1.98;;;5.40;99.90;;;;;;5066096;28;20009;-50
2021/04/05 10:09:48;;;;;;;5.20;1.67;;;5.40;99.90;;;;;;5085718;28;20040;-49
2021/04/05 10:12:15;;;;;;;3.78;1.52;;;5.30;99.90;;;;;;5086095;28;20461;-49
2021/04/05 10:14:42;;;;;;;9.27;2.88;;;5.10;99.90;;;;;;5085227;28;20497;-51
2021/04/05 10:17:11;;;;;;;3.80;1.25;;;4.80;99.90;;;;;;5085036;28;20028;-48
2021/04/05 10:19:40;;;;;;;6.13;1.35;;;4.60;99.90;;;;;;5085592;28;20028;-48
2021/04/05 10:22:13;;;;;;;8.63;1.85;;;4.50;99.90;;;;;;5086157;28;20048;-49
2021/04/05 10:24:42;;;;;;;5.75;1.40;;;4.50;99.90;;;;;;5088919;28;20047;-50
2021/04/05 10:27:11;;;;;;;4.85;1.45;;;4.50;99.90;;;;;;5088487;28;20080;-48
2021/04/05 10:29:41;;;;;;;8.57;1.20;;;4.60;99.90;;;;;;5071095;28;20499;-48
2021/04/05 10:32:09;;;;;;;9.82;1.60;;;4.50;99.90;;;;;;5088622;28;20032;-48
2021/04/05 10:34:35;;;;;;;11.35;1.40;;;4.50;99.90;;;;;;5088050;28;20412;-47
2021/04/05 10:37:10;;;;;;;6.55;1.75;;;4.30;99.90;;;;;;5088630;28;20558;-48
2021/04/05 10:39:45;;;;;;;9.32;1.67;;;4.10;99.90;;;;;;5060424;28;20028;-49
2021/04/05 10:42:43;;;;;;;8.57;1.13;;;4.10;99.90;;;;;;5068459;28;20063;-50
2021/04/05 10:45:16;;;;;;;8.50;1.38;;;4.10;99.90;;;;;;5027525;28;20464;-48
2021/04/05 10:48:02;;;;;;;2.92;1.40;;;4.10;99.90;;;;;;5069519;28;20028;-47
2021/04/05 10:50:30;;;;;;;4.45;1.33;;;4.20;99.90;;;;;;5088813;28;20031;-46
2021/04/05 10:53:04;;;;;;;6.18;1.90;;;4.30;99.90;;;;;;5087897;28;20050;-48
2021/04/05 10:55:30;;;;;;;3.58;1.40;;;4.40;99.90;;;;;;5092329;28;20031;-47
2021/04/05 10:58:00;;;;;;;8.15;2.05;;;4.30;99.90;;;;;;5090469;28;20130;-50
2021/04/05 11:00:41;;;;;;;2.80;1.13;;;4.10;99.90;;;;;;5087167;28;20028;-47
2021/04/05 11:03:06;;;;;;;4.60;1.27;;;4.20;99.90;;;;;;5085245;28;20020;-47
2021/04/05 11:05:34;;;;;;;6.97;1.35;;;4.10;99.90;;;;;;5088925;28;20031;-49
2021/04/05 11:08:02;;;;;;;2.78;0.82;;;4.20;99.90;;;;;;5087970;28;20024;-47
2021/04/05 11:10:37;;;;;;;4.43;0.68;;;4.10;99.90;;;;;;5088377;28;20390;-46
2021/04/05 11:13:17;;;;;;;0.93;0.55;;;4.00;99.90;;;;;;5087860;28;20062;-46
2021/04/05 11:15:44;;;;;;;1.42;0.73;;;4.00;99.90;;;;;;5087267;28;20447;-47
2021/04/05 11:18:12;;;;;;;1.10;0.47;;;3.80;99.90;;;;;;5070013;28;20469;-47
2021/04/05 11:20:41;;;;;;;2.35;0.77;;;3.80;99.90;;;;;;5088240;28;20024;-46
2021/04/05 11:23:14;;;;;;;1.30;0.55;;;3.70;99.90;;;;;;5086604;28;20062;-45
2021/04/05 11:25:42;;;;;;;3.38;0.73;;;3.60;99.90;;;;;;5067840;28;20031;-46
2021/04/05 11:28:27;;;;;;;1.10;0.60;;;3.60;99.90;;;;;;5080557;28;20070;-47
2021/04/05 11:31:15;;;;;;;0.90;0.80;;;3.70;99.90;;;;;;5087640;28;20048;-46
2021/04/05 11:33:49;;;;;;;1.05;0.50;;;3.90;99.90;;;;;;5085484;28;20054;-46
2021/04/05 11:36:17;;;;;;;2.50;0.50;;;4.00;99.90;;;;;;5086361;28;20222;-47
2021/04/05 11:38:45;;;;;;;2.33;1.67;;;4.30;99.90;;;;;;5085657;28;20397;-47
2021/04/05 11:41:14;;;;;;;0.50;0.40;;;4.50;99.90;;;;;;5088279;28;20032;-46
2021/04/05 11:43:47;;;;;;;3.60;0.60;;;4.60;99.90;;;;;;5085632;28;20213;-47
2021/04/05 11:46:16;;;;;;;2.67;0.80;;;5.00;99.90;;;;;;5086339;28;20112;-47
2021/04/05 11:48:43;;;;;;;3.53;0.88;;;5.20;99.90;;;;;;5068346;28;20035;-47
2021/04/05 11:51:09;;;;;;;2.60;0.90;;;5.50;99.90;;;;;;5087202;28;20043;-47
2021/04/05 11:53:47;;;;;;;2.55;1.17;;;5.80;99.90;;;;;;5086905;28;20047;-47
2021/04/05 11:56:16;;;;;;;8.02;1.17;;;6.10;99.90;;;;;;5087030;28;20401;-47
2021/04/05 11:58:47;;;;;;;5.43;1.23;;;6.20;99.90;;;;;;5086251;28;20024;-48
2021/04/05 12:01:20;;;;;;;9.70;1.85;;;5.80;99.90;;;;;;5086471;28;20039;-47
2021/04/05 12:03:59;;;;;;;9.32;1.98;;;5.20;99.90;;;;;;5086494;28;20115;-47
2021/04/05 12:06:36;;;;;;;7.80;1.70;;;4.80;99.90;;;;;;5087507;28;20020;-47
2021/04/05 12:09:08;;;;;;;6.00;1.70;;;4.30;99.90;;;;;;5086528;28;20020;-46
2021/04/05 12:11:49;;;;;;;4.90;1.30;;;3.90;99.90;;;;;;5087312;28;20028;-46
2021/04/05 12:14:20;;;;;;;6.63;1.30;;;3.90;99.90;;;;;;5085696;28;20036;-49
2021/04/05 12:16:51;;;;;;;6.18;1.33;;;4.10;99.90;;;;;;5068952;28;20081;-46
2021/04/05 12:19:26;;;;;;;4.07;1.73;;;4.30;99.90;;;;;;5087144;28;20535;-48
2021/04/05 12:21:53;;;;;;;9.70;2.08;;;4.30;99.90;;;;;;5086596;28;20085;-46
2021/04/05 12:24:28;;;;;;;7.97;1.55;;;4.70;99.90;;;;;;5086928;28;20099;-46
2021/04/05 12:26:57;;;;;;;10.73;1.60;;;4.70;99.90;;;;;;5085980;28;20378;-47
2021/04/05 12:29:25;;;;;;;8.05;1.90;;;5.30;99.90;;;;;;5086850;28;20024;-49
2021/04/05 12:31:54;;;;;;;7.68;2.08;;;5.90;99.90;;;;;;5087079;28;20059;-47
2021/04/05 12:34:20;;;;;;;4.10;1.27;;;6.40;99.90;;;;;;5050771;28;20489;-47
2021/04/05 12:36:46;;;;;;;3.00;1.15;;;6.70;97.10;;;;;;5087091;28;20048;-48
2021/04/05 12:39:14;;;;;;;5.20;1.23;;;7.40;99.90;;;;;;5085702;28;20194;-47
2021/04/05 12:41:44;;;;;;;8.52;2.15;;;8.00;98.50;;;;;;5068261;28;20063;-49
2021/04/05 12:44:13;;;;;;;8.07;1.88;;;8.10;97.50;;;;;;5085651;28;20028;-47
2021/04/05 12:46:40;;;;;;;5.55;1.65;;;8.20;94.70;;;;;;5079528;28;20111;-47
2021/04/05 12:49:08;;;;;;;6.20;1.80;;;8.00;93.20;;;;;;5066234;28;20024;-47
2021/04/05 12:51:35;;;;;;;6.72;1.90;;;7.60;90.10;;;;;;5084884;28;20077;-46
2021/04/05 12:54:09;;;;;;;9.13;1.90;;;7.80;94.90;;;;;;5086083;28;20396;-46
2021/04/05 12:56:36;;;;;;;6.50;1.90;;;7.80;91.80;;;;;;5086817;28;20028;-46
2021/04/05 12:59:02;;;;;;;6.35;2.08;;;7.40;88.50;;;;;;5086130;28;20126;-46
2021/04/05 13:01:34;;;;;;;10.07;1.45;;;6.80;91.70;;;;;;5078704;28;20511;-46
2021/04/05 13:04:03;;;;;;;7.20;1.55;;;6.90;92.90;;;;;;5077369;28;20028;-47
2021/04/05 13:06:40;;;;;;;9.27;1.52;;;6.10;93.60;;;;;;5085108;28;20025;-46
2021/04/05 13:09:17;;;;;;;9.18;1.40;;;5.00;99.50;;;;;;5084457;28;20016;-46
2021/04/05 13:12:02;;;;;;;11.68;1.58;;;4.60;99.90;;;;;;5085297;28;20504;-46
2021/04/05 13:14:30;;;;;;;7.30;1.90;;;4.00;99.90;;;;;;5063043;28;20024;-46
2021/04/05 13:17:05;;;;;;;5.88;1.55;;;3.60;99.90;;;;;;5083738;28;20389;-46
2021/04/05 13:19:37;;;;;;;11.85;1.35;;;3.10;99.90;;;;;;5085151;28;20028;-46
2021/04/05 13:22:10;;;;;;;7.97;1.05;;;2.80;99.90;;;;;;5074677;28;20024;-46
2021/04/05 13:24:39;;;;;;;6.82;1.80;;;2.80;99.90;;;;;;5082752;28;20486;-50